sensor_id;sensor_type;location;lat;lon;timestamp;pressure;altitude;pressure_sealevel;temperature;humidity
80986;BME280;70451;51.226;6.412;2023-06-24T00:00:20;101789.22;;;16.87;82.94
80986;BME280;70451;51.226;6.412;2023-06-24T00:02:35;101791.00;;;16.86;82.75
80986;BME280;70451;51.226;6.412;2023-06-24T00:04:56;101777.84;;;16.86;82.76
80986;BME280;70451;51.226;6.412;2023-06-24T00:07:15;101771.81;;;16.84;82.96
80986;BME280;70451;51.226;6.412;2023-06-24T00:09:30;101782.34;;;16.84;82.87
80986;BME280;70451;51.226;6.412;2023-06-24T00:11:46;101774.56;;;16.82;82.91
80986;BME280;70451;51.226;6.412;2023-06-24T00:14:01;101780.75;;;16.81;83.41
80986;BME280;70451;51.226;6.412;2023-06-24T00:16:16;101777.44;;;16.78;82.88
80986;BME280;70451;51.226;6.412;2023-06-24T00:18:33;101782.81;;;16.76;83.13
80986;BME280;70451;51.226;6.412;2023-06-24T00:20:48;101781.22;;;16.74;83.08
80986;BME280;70451;51.226;6.412;2023-06-24T00:23:05;101787.34;;;16.74;83.38
80986;BME280;70451;51.226;6.412;2023-06-24T00:25:20;101779.34;;;16.76;83.29
80986;BME280;70451;51.226;6.412;2023-06-24T00:27:36;101776.78;;;16.74;83.35
80986;BME280;70451;51.226;6.412;2023-06-24T00:29:51;101777.72;;;16.73;83.59
80986;BME280;70451;51.226;6.412;2023-06-24T00:32:07;101782.16;;;16.73;83.52
80986;BME280;70451;51.226;6.412;2023-06-24T00:34:22;101777.72;;;16.73;83.60
80986;BME280;70451;51.226;6.412;2023-06-24T00:36:38;101772.53;;;16.72;83.54
80986;BME280;70451;51.226;6.412;2023-06-24T00:38:55;101774.41;;;16.70;83.35
80986;BME280;70451;51.226;6.412;2023-06-24T00:41:11;101779.69;;;16.70;83.65
80986;BME280;70451;51.226;6.412;2023-06-24T00:43:27;101773.66;;;16.68;83.69
80986;BME280;70451;51.226;6.412;2023-06-24T00:45:42;101776.47;;;16.65;83.69
80986;BME280;70451;51.226;6.412;2023-06-24T00:47:58;101775.63;;;16.64;84.02
80986;BME280;70451;51.226;6.412;2023-06-24T00:50:15;101774.78;;;16.64;83.82
80986;BME280;70451;51.226;6.412;2023-06-24T00:52:30;101780.25;;;16.61;83.85
80986;BME280;70451;51.226;6.412;2023-06-24T00:54:45;101784.66;;;16.60;83.86
80986;BME280;70451;51.226;6.412;2023-06-24T00:57:01;101784.66;;;16.60;83.90
80986;BME280;70451;51.226;6.412;2023-06-24T00:59:16;101784.72;;;16.59;83.93
80986;BME280;70451;51.226;6.412;2023-06-24T01:01:34;101792.69;;;16.57;84.23
80986;BME280;70451;51.226;6.412;2023-06-24T01:03:50;101785.84;;;16.55;83.73
80986;BME280;70451;51.226;6.412;2023-06-24T01:06:06;101778.78;;;16.55;83.89
80986;BME280;70451;51.226;6.412;2023-06-24T01:08:22;101781.50;;;16.54;83.69
80986;BME280;70451;51.226;6.412;2023-06-24T01:10:38;101782.44;;;16.53;83.59
80986;BME280;70451;51.226;6.412;2023-06-24T01:12:53;101774.44;;;16.54;83.53
80986;BME280;70451;51.226;6.412;2023-06-24T01:15:09;101774.34;;;16.56;83.50
80986;BME280;70451;51.226;6.412;2023-06-24T01:27:45;101771.53;;;16.74;83.38
80986;BME280;70451;51.226;6.412;2023-06-24T01:30:34;101767.66;;;16.80;83.60
80986;BME280;70451;51.226;6.412;2023-06-24T01:32:59;101766.34;;;16.87;83.53
80986;BME280;70451;51.226;6.412;2023-06-24T01:35:20;101765.34;;;16.90;83.58
80986;BME280;70451;51.226;6.412;2023-06-24T01:37:47;101766.84;;;16.94;83.43
80986;BME280;70451;51.226;6.412;2023-06-24T01:42:25;101766.66;;;16.97;83.70
80986;BME280;70451;51.226;6.412;2023-06-24T01:44:43;101763.81;;;17.00;83.55
80986;BME280;70451;51.226;6.412;2023-06-24T01:46:59;101763.19;;;16.96;83.87
80986;BME280;70451;51.226;6.412;2023-06-24T01:49:17;101762.34;;;16.96;84.08
80986;BME280;70451;51.226;6.412;2023-06-24T01:51:35;101757.53;;;17.02;83.86
80986;BME280;70451;51.226;6.412;2023-06-24T01:53:54;101753.03;;;17.04;84.02
80986;BME280;70451;51.226;6.412;2023-06-24T01:56:14;101757.91;;;16.96;84.43
80986;BME280;70451;51.226;6.412;2023-06-24T01:58:32;101751.41;;;16.88;84.77
80986;BME280;70451;51.226;6.412;2023-06-24T02:00:50;101746.13;;;16.88;84.70
80986;BME280;70451;51.226;6.412;2023-06-24T02:03:07;101743.41;;;16.89;84.97
80986;BME280;70451;51.226;6.412;2023-06-24T02:05:24;101740.00;;;16.87;84.75
80986;BME280;70451;51.226;6.412;2023-06-24T02:07:41;101742.25;;;16.79;84.75
80986;BME280;70451;51.226;6.412;2023-06-24T02:09:58;101739.91;;;16.74;85.23
80986;BME280;70451;51.226;6.412;2023-06-24T02:12:15;101741.75;;;16.72;85.32
80986;BME280;70451;51.226;6.412;2023-06-24T02:14:31;101739.34;;;16.69;85.33
80986;BME280;70451;51.226;6.412;2023-06-24T02:16:47;101746.63;;;16.64;85.59
80986;BME280;70451;51.226;6.412;2023-06-24T02:19:04;101744.78;;;16.51;85.60
80986;BME280;70451;51.226;6.412;2023-06-24T02:21:23;101743.69;;;16.55;86.19
80986;BME280;70451;51.226;6.412;2023-06-24T02:23:40;101744.53;;;16.55;85.80
80986;BME280;70451;51.226;6.412;2023-06-24T02:25:56;101748.84;;;16.56;85.83
80986;BME280;70451;51.226;6.412;2023-06-24T02:28:14;101749.03;;;16.53;85.87
80986;BME280;70451;51.226;6.412;2023-06-24T02:30:30;101745.63;;;16.51;86.10
80986;BME280;70451;51.226;6.412;2023-06-24T02:32:45;101752.28;;;16.42;86.40
80986;BME280;70451;51.226;6.412;2023-06-24T02:35:01;101750.84;;;16.37;86.53
80986;BME280;70451;51.226;6.412;2023-06-24T02:37:16;101743.97;;;16.34;86.61
80986;BME280;70451;51.226;6.412;2023-06-24T02:39:32;101754.78;;;16.30;86.96
80986;BME280;70451;51.226;6.412;2023-06-24T02:41:47;101749.88;;;16.24;87.18
80986;BME280;70451;51.226;6.412;2023-06-24T02:44:04;101751.56;;;16.25;87.08
80986;BME280;70451;51.226;6.412;2023-06-24T02:46:20;101752.50;;;16.24;86.67
80986;BME280;70451;51.226;6.412;2023-06-24T02:48:38;101750.66;;;16.26;86.27
80986;BME280;70451;51.226;6.412;2023-06-24T02:50:54;101756.84;;;16.25;86.81
80986;BME280;70451;51.226;6.412;2023-06-24T02:53:10;101749.38;;;16.17;86.60
80986;BME280;70451;51.226;6.412;2023-06-24T02:55:27;101756.44;;;16.17;87.58
80986;BME280;70451;51.226;6.412;2023-06-24T02:57:43;101753.78;;;16.17;87.78
80986;BME280;70451;51.226;6.412;2023-06-24T02:59:59;101750.38;;;16.15;88.08
80986;BME280;70451;51.226;6.412;2023-06-24T03:02:15;101750.38;;;16.15;88.17
80986;BME280;70451;51.226;6.412;2023-06-24T03:04:32;101759.56;;;16.08;88.11
80986;BME280;70451;51.226;6.412;2023-06-24T03:06:48;101762.03;;;16.11;88.00
80986;BME280;70451;51.226;6.412;2023-06-24T03:09:04;101754.06;;;16.12;87.89
80986;BME280;70451;51.226;6.412;2023-06-24T03:11:20;101756.59;;;16.14;88.07
80986;BME280;70451;51.226;6.412;2023-06-24T03:13:35;101755.25;;;16.06;87.42
80986;BME280;70451;51.226;6.412;2023-06-24T03:15:50;101765.03;;;16.04;87.92
80986;BME280;70451;51.226;6.412;2023-06-24T03:18:06;101766.88;;;16.02;88.19
80986;BME280;70451;51.226;6.412;2023-06-24T03:20:21;101768.50;;;16.05;88.17
80986;BME280;70451;51.226;6.412;2023-06-24T03:22:36;101766.81;;;16.04;88.39
80986;BME280;70451;51.226;6.412;2023-06-24T03:24:52;101763.41;;;16.02;88.17
80986;BME280;70451;51.226;6.412;2023-06-24T03:27:08;101765.88;;;16.05;88.43
80986;BME280;70451;51.226;6.412;2023-06-24T03:29:23;101769.53;;;16.02;88.43
80986;BME280;70451;51.226;6.412;2023-06-24T03:31:38;101771.03;;;16.06;88.60
80986;BME280;70451;51.226;6.412;2023-06-24T03:33:59;101777.06;;;16.09;88.40
80986;BME280;70451;51.226;6.412;2023-06-24T03:36:14;101772.06;;;16.04;88.17
80986;BME280;70451;51.226;6.412;2023-06-24T03:38:29;101778.06;;;16.06;88.28
80986;BME280;70451;51.226;6.412;2023-06-24T03:40:45;101784.03;;;16.10;88.40
80986;BME280;70451;51.226;6.412;2023-06-24T03:43:00;101781.31;;;16.11;87.47
80986;BME280;70451;51.226;6.412;2023-06-24T03:45:15;101766.19;;;16.15;88.22
80986;BME280;70451;51.226;6.412;2023-06-24T03:47:31;101762.97;;;16.10;87.75
80986;BME280;70451;51.226;6.412;2023-06-24T03:49:46;101772.31;;;16.15;88.16
80986;BME280;70451;51.226;6.412;2023-06-24T03:52:02;101761.97;;;16.12;87.97
80986;BME280;70451;51.226;6.412;2023-06-24T03:54:18;101772.16;;;16.18;87.75
80986;BME280;70451;51.226;6.412;2023-06-24T03:56:34;101780.97;;;16.17;88.17
80986;BME280;70451;51.226;6.412;2023-06-24T03:58:49;101774.78;;;16.18;88.12
80986;BME280;70451;51.226;6.412;2023-06-24T04:01:04;101783.59;;;16.17;87.73
80986;BME280;70451;51.226;6.412;2023-06-24T04:03:20;101789.44;;;16.22;88.15
80986;BME280;70451;51.226;6.412;2023-06-24T04:05:36;101784.97;;;16.24;87.98
80986;BME280;70451;51.226;6.412;2023-06-24T04:07:51;101788.25;;;16.28;87.97
80986;BME280;70451;51.226;6.412;2023-06-24T04:10:09;101793.44;;;16.29;87.75
80986;BME280;70451;51.226;6.412;2023-06-24T04:12:25;101788.34;;;16.26;88.15
80986;BME280;70451;51.226;6.412;2023-06-24T04:14:40;101795.91;;;16.32;88.22
80986;BME280;70451;51.226;6.412;2023-06-24T04:16:56;101797.34;;;16.38;88.02
80986;BME280;70451;51.226;6.412;2023-06-24T04:19:11;101798.09;;;16.40;88.23
80986;BME280;70451;51.226;6.412;2023-06-24T04:21:26;101792.19;;;16.51;87.55
80986;BME280;70451;51.226;6.412;2023-06-24T04:23:42;101795.88;;;16.48;87.48
80986;BME280;70451;51.226;6.412;2023-06-24T04:25:57;101797.13;;;16.57;87.51
80986;BME280;70451;51.226;6.412;2023-06-24T04:28:13;101789.41;;;16.69;87.59
80986;BME280;70451;51.226;6.412;2023-06-24T04:30:28;101786.78;;;16.83;87.49
80986;BME280;70451;51.226;6.412;2023-06-24T04:32:43;101788.00;;;16.92;87.08
80986;BME280;70451;51.226;6.412;2023-06-24T04:34:59;101796.88;;;17.05;86.59
80986;BME280;70451;51.226;6.412;2023-06-24T04:37:18;101789.94;;;17.18;86.33
80986;BME280;70451;51.226;6.412;2023-06-24T04:39:33;101791.44;;;17.22;86.14
80986;BME280;70451;51.226;6.412;2023-06-24T04:41:48;101794.47;;;17.31;86.11
80986;BME280;70451;51.226;6.412;2023-06-24T04:44:04;101789.84;;;17.34;85.83
80986;BME280;70451;51.226;6.412;2023-06-24T04:46:20;101793.31;;;17.35;85.42
80986;BME280;70451;51.226;6.412;2023-06-24T04:48:36;101793.78;;;17.41;85.05
80986;BME280;70451;51.226;6.412;2023-06-24T04:50:52;101796.25;;;17.44;85.19
80986;BME280;70451;51.226;6.412;2023-06-24T04:53:08;101792.69;;;17.45;84.90
80986;BME280;70451;51.226;6.412;2023-06-24T04:55:24;101794.94;;;17.51;84.79
80986;BME280;70451;51.226;6.412;2023-06-24T04:57:39;101791.44;;;17.51;83.88
80986;BME280;70451;51.226;6.412;2023-06-24T04:59:56;101786.47;;;17.60;84.62
80986;BME280;70451;51.226;6.412;2023-06-24T05:02:12;101785.44;;;17.63;84.17
80986;BME280;70451;51.226;6.412;2023-06-24T05:04:27;101790.91;;;17.74;84.47
80986;BME280;70451;51.226;6.412;2023-06-24T05:06:42;101793.44;;;17.76;83.48
80986;BME280;70451;51.226;6.412;2023-06-24T05:08:58;101790.97;;;17.87;83.90
80986;BME280;70451;51.226;6.412;2023-06-24T05:11:13;101792.25;;;17.94;83.48
80986;BME280;70451;51.226;6.412;2023-06-24T05:13:28;101791.97;;;17.98;83.82
80986;BME280;70451;51.226;6.412;2023-06-24T05:15:43;101793.56;;;18.01;83.27
80986;BME280;70451;51.226;6.412;2023-06-24T05:17:59;101792.75;;;18.13;82.58
80986;BME280;70451;51.226;6.412;2023-06-24T05:20:14;101797.00;;;18.16;82.28
80986;BME280;70451;51.226;6.412;2023-06-24T05:22:29;101794.31;;;18.30;81.97
80986;BME280;70451;51.226;6.412;2023-06-24T05:24:45;101792.97;;;18.37;81.91
80986;BME280;70451;51.226;6.412;2023-06-24T05:27:04;101794.91;;;18.48;81.57
80986;BME280;70451;51.226;6.412;2023-06-24T05:29:20;101793.22;;;18.47;79.63
80986;BME280;70451;51.226;6.412;2023-06-24T05:31:36;101799.41;;;18.60;80.77
80986;BME280;70451;51.226;6.412;2023-06-24T05:33:51;101794.38;;;18.55;79.40
80986;BME280;70451;51.226;6.412;2023-06-24T05:36:06;101789.69;;;18.60;78.70
80986;BME280;70451;51.226;6.412;2023-06-24T05:38:22;101795.00;;;18.73;78.76
80986;BME280;70451;51.226;6.412;2023-06-24T05:40:37;101793.22;;;18.86;78.71
80986;BME280;70451;51.226;6.412;2023-06-24T05:42:52;101801.06;;;18.88;76.99
80986;BME280;70451;51.226;6.412;2023-06-24T05:45:08;101801.25;;;18.97;76.56
80986;BME280;70451;51.226;6.412;2023-06-24T05:47:23;101801.81;;;19.02;75.63
80986;BME280;70451;51.226;6.412;2023-06-24T05:49:38;101813.34;;;19.14;74.84
80986;BME280;70451;51.226;6.412;2023-06-24T05:51:54;101801.28;;;19.23;74.66
80986;BME280;70451;51.226;6.412;2023-06-24T05:54:09;101810.16;;;19.22;73.60
80986;BME280;70451;51.226;6.412;2023-06-24T05:56:25;101800.66;;;19.32;72.72
80986;BME280;70451;51.226;6.412;2023-06-24T05:58:41;101816.31;;;19.47;73.45
80986;BME280;70451;51.226;6.412;2023-06-24T06:00:56;101810.06;;;19.48;72.92
80986;BME280;70451;51.226;6.412;2023-06-24T06:03:13;101819.72;;;19.49;72.89
80986;BME280;70451;51.226;6.412;2023-06-24T06:05:29;101815.47;;;19.60;72.81
80986;BME280;70451;51.226;6.412;2023-06-24T06:07:44;101822.03;;;19.67;72.87
80986;BME280;70451;51.226;6.412;2023-06-24T06:09:59;101821.50;;;19.74;72.31
80986;BME280;70451;51.226;6.412;2023-06-24T06:12:15;101819.69;;;19.75;71.56
80986;BME280;70451;51.226;6.412;2023-06-24T06:14:31;101827.59;;;19.87;71.63
80986;BME280;70451;51.226;6.412;2023-06-24T06:16:46;101815.59;;;19.94;71.01
80986;BME280;70451;51.226;6.412;2023-06-24T06:19:01;101817.56;;;20.16;72.24
80986;BME280;70451;51.226;6.412;2023-06-24T06:21:17;101818.22;;;20.07;70.56
80986;BME280;70451;51.226;6.412;2023-06-24T06:23:32;101824.75;;;20.14;69.79
80986;BME280;70451;51.226;6.412;2023-06-24T06:25:47;101823.94;;;20.25;69.63
80986;BME280;70451;51.226;6.412;2023-06-24T06:28:03;101822.91;;;20.27;68.12
80986;BME280;70451;51.226;6.412;2023-06-24T06:30:18;101835.09;;;20.30;66.57
80986;BME280;70451;51.226;6.412;2023-06-24T06:32:33;101831.06;;;20.37;66.40
80986;BME280;70451;51.226;6.412;2023-06-24T06:34:49;101834.59;;;20.49;67.21
80986;BME280;70451;51.226;6.412;2023-06-24T06:37:04;101838.72;;;20.53;66.50
80986;BME280;70451;51.226;6.412;2023-06-24T06:39:20;101834.19;;;20.66;66.75
80986;BME280;70451;51.226;6.412;2023-06-24T06:41:35;101834.91;;;20.68;65.86
80986;BME280;70451;51.226;6.412;2023-06-24T06:43:51;101833.09;;;20.68;64.60
80986;BME280;70451;51.226;6.412;2023-06-24T06:46:06;101826.28;;;20.77;65.16
80986;BME280;70451;51.226;6.412;2023-06-24T06:48:22;101828.00;;;20.89;65.59
80986;BME280;70451;51.226;6.412;2023-06-24T06:50:37;101828.88;;;21.01;64.95
80986;BME280;70451;51.226;6.412;2023-06-24T06:52:52;101835.53;;;21.06;64.46
80986;BME280;70451;51.226;6.412;2023-06-24T06:55:09;101835.94;;;20.89;64.19
80986;BME280;70451;51.226;6.412;2023-06-24T06:57:24;101836.16;;;21.10;63.25
80986;BME280;70451;51.226;6.412;2023-06-24T06:59:39;101839.03;;;21.07;62.42
80986;BME280;70451;51.226;6.412;2023-06-24T07:01:55;101842.72;;;21.28;63.18
80986;BME280;70451;51.226;6.412;2023-06-24T07:04:10;101841.28;;;21.35;62.57
80986;BME280;70451;51.226;6.412;2023-06-24T07:06:25;101839.59;;;21.45;63.48
80986;BME280;70451;51.226;6.412;2023-06-24T07:08:41;101844.66;;;21.37;61.49
80986;BME280;70451;51.226;6.412;2023-06-24T07:10:56;101845.50;;;21.38;60.68
80986;BME280;70451;51.226;6.412;2023-06-24T07:13:11;101848.03;;;21.51;61.22
80986;BME280;70451;51.226;6.412;2023-06-24T07:15:27;101849.97;;;21.48;60.80
80986;BME280;70451;51.226;6.412;2023-06-24T07:17:42;101850.56;;;21.41;62.34
80986;BME280;70451;51.226;6.412;2023-06-24T07:19:57;101847.69;;;21.66;62.14
80986;BME280;70451;51.226;6.412;2023-06-24T07:22:14;101848.88;;;21.84;61.12
80986;BME280;70451;51.226;6.412;2023-06-24T07:24:29;101844.78;;;21.80;61.53
80986;BME280;70451;51.226;6.412;2023-06-24T07:26:44;101848.16;;;21.60;60.42
80986;BME280;70451;51.226;6.412;2023-06-24T07:29:00;101852.13;;;21.77;60.06
80986;BME280;70451;51.226;6.412;2023-06-24T07:31:15;101854.69;;;22.01;61.05
80986;BME280;70451;51.226;6.412;2023-06-24T07:33:31;101856.38;;;22.02;59.02
80986;BME280;70451;51.226;6.412;2023-06-24T07:35:46;101862.28;;;21.94;58.89
80986;BME280;70451;51.226;6.412;2023-06-24T07:38:01;101854.31;;;21.83;58.50
80986;BME280;70451;51.226;6.412;2023-06-24T07:40:17;101859.63;;;22.05;60.43
80986;BME280;70451;51.226;6.412;2023-06-24T07:42:32;101857.94;;;22.04;59.02
80986;BME280;70451;51.226;6.412;2023-06-24T07:44:48;101849.81;;;22.28;59.93
80986;BME280;70451;51.226;6.412;2023-06-24T07:47:03;101856.13;;;22.16;59.03
80986;BME280;70451;51.226;6.412;2023-06-24T07:49:18;101851.44;;;22.40;59.71
80986;BME280;70451;51.226;6.412;2023-06-24T07:51:34;101851.66;;;22.48;60.08
80986;BME280;70451;51.226;6.412;2023-06-24T07:53:50;101848.59;;;22.64;61.06
80986;BME280;70451;51.226;6.412;2023-06-24T07:56:05;101852.19;;;22.42;58.65
80986;BME280;70451;51.226;6.412;2023-06-24T07:58:20;101848.50;;;22.11;59.21
80986;BME280;70451;51.226;6.412;2023-06-24T08:00:36;101851.97;;;22.34;58.41
80986;BME280;70451;51.226;6.412;2023-06-24T08:02:51;101853.94;;;22.53;57.67
80986;BME280;70451;51.226;6.412;2023-06-24T08:05:07;101845.38;;;22.49;57.13
80986;BME280;70451;51.226;6.412;2023-06-24T08:07:24;101852.91;;;22.44;56.75
80986;BME280;70451;51.226;6.412;2023-06-24T08:09:39;101852.91;;;22.44;57.60
80986;BME280;70451;51.226;6.412;2023-06-24T08:11:54;101856.91;;;22.71;59.30
80986;BME280;70451;51.226;6.412;2023-06-24T08:14:10;101859.09;;;22.97;59.01
80986;BME280;70451;51.226;6.412;2023-06-24T08:16:25;101854.88;;;22.95;56.74
80986;BME280;70451;51.226;6.412;2023-06-24T08:18:40;101855.38;;;22.89;56.46
80986;BME280;70451;51.226;6.412;2023-06-24T08:20:56;101853.25;;;23.03;57.75
80986;BME280;70451;51.226;6.412;2023-06-24T08:23:11;101859.22;;;23.17;56.88
80986;BME280;70451;51.226;6.412;2023-06-24T08:25:26;101859.50;;;23.14;56.34
80986;BME280;70451;51.226;6.412;2023-06-24T08:27:42;101848.41;;;23.09;55.87
80986;BME280;70451;51.226;6.412;2023-06-24T08:30:01;101845.22;;;23.15;57.65
80986;BME280;70451;51.226;6.412;2023-06-24T08:32:16;101847.66;;;23.27;56.85
80986;BME280;70451;51.226;6.412;2023-06-24T08:34:33;101840.97;;;23.33;57.48
80986;BME280;70451;51.226;6.412;2023-06-24T08:36:48;101844.78;;;23.40;57.17
80986;BME280;70451;51.226;6.412;2023-06-24T08:39:03;101838.22;;;23.23;55.45
80986;BME280;70451;51.226;6.412;2023-06-24T08:41:19;101836.78;;;23.40;55.53
80986;BME280;70451;51.226;6.412;2023-06-24T08:43:34;101833.25;;;23.51;56.88
80986;BME280;70451;51.226;6.412;2023-06-24T08:45:50;101832.06;;;23.43;54.78
80986;BME280;70451;51.226;6.412;2023-06-24T08:48:05;101828.81;;;23.40;53.23
80986;BME280;70451;51.226;6.412;2023-06-24T08:50:22;101838.34;;;23.63;53.85
80986;BME280;70451;51.226;6.412;2023-06-24T08:52:43;101830.41;;;23.83;55.26
80986;BME280;70451;51.226;6.412;2023-06-24T08:55:01;101833.38;;;23.89;55.14
80986;BME280;70451;51.226;6.412;2023-06-24T08:57:16;101825.91;;;23.83;53.35
80986;BME280;70451;51.226;6.412;2023-06-24T08:59:34;101833.66;;;23.96;53.54
80986;BME280;70451;51.226;6.412;2023-06-24T09:01:50;101830.28;;;23.84;51.91
80986;BME280;70451;51.226;6.412;2023-06-24T09:04:05;101828.50;;;23.94;53.58
80986;BME280;70451;51.226;6.412;2023-06-24T09:06:20;101828.50;;;24.04;53.95
80986;BME280;70451;51.226;6.412;2023-06-24T09:08:36;101820.50;;;24.04;53.92
80986;BME280;70451;51.226;6.412;2023-06-24T09:10:55;101824.16;;;24.12;55.68
80986;BME280;70451;51.226;6.412;2023-06-24T09:13:13;101816.03;;;24.14;54.04
80986;BME280;70451;51.226;6.412;2023-06-24T09:15:33;101828.09;;;24.18;53.90
80986;BME280;70451;51.226;6.412;2023-06-24T09:17:48;101829.00;;;24.28;53.50
80986;BME280;70451;51.226;6.412;2023-06-24T09:20:05;101832.66;;;24.27;52.69
80986;BME280;70451;51.226;6.412;2023-06-24T09:22:20;101827.81;;;24.11;51.31
80986;BME280;70451;51.226;6.412;2023-06-24T09:24:36;101819.59;;;24.34;52.92
80986;BME280;70451;51.226;6.412;2023-06-24T09:26:55;101825.06;;;24.32;52.28
80986;BME280;70451;51.226;6.412;2023-06-24T09:29:13;101816.50;;;24.29;52.03
80986;BME280;70451;51.226;6.412;2023-06-24T09:31:29;101806.56;;;24.50;51.88
80986;BME280;70451;51.226;6.412;2023-06-24T09:33:44;101811.88;;;24.40;50.41
80986;BME280;70451;51.226;6.412;2023-06-24T09:36:03;101797.28;;;24.35;49.28
80986;BME280;70451;51.226;6.412;2023-06-24T09:38:31;101804.44;;;24.53;52.34
80986;BME280;70451;51.226;6.412;2023-06-24T09:40:47;101806.94;;;24.74;49.83
80986;BME280;70451;51.226;6.412;2023-06-24T09:43:02;101797.53;;;24.61;46.18
80986;BME280;70451;51.226;6.412;2023-06-24T09:45:26;101796.81;;;24.97;48.63
80986;BME280;70451;51.226;6.412;2023-06-24T09:47:42;101788.41;;;24.92;48.09
80986;BME280;70451;51.226;6.412;2023-06-24T09:49:57;101790.09;;;24.93;47.57
80986;BME280;70451;51.226;6.412;2023-06-24T09:52:13;101784.59;;;24.94;44.41
80986;BME280;70451;51.226;6.412;2023-06-24T09:54:31;101784.72;;;25.03;45.91
80986;BME280;70451;51.226;6.412;2023-06-24T09:56:48;101778.97;;;25.07;46.97
80986;BME280;70451;51.226;6.412;2023-06-24T09:59:05;101774.22;;;24.91;44.52
80986;BME280;70451;51.226;6.412;2023-06-24T10:01:21;101776.31;;;24.98;41.26
80986;BME280;70451;51.226;6.412;2023-06-24T10:03:36;101766.41;;;25.17;43.47
80986;BME280;70451;51.226;6.412;2023-06-24T10:05:53;101768.03;;;25.01;41.64
80986;BME280;70451;51.226;6.412;2023-06-24T10:08:09;101775.75;;;24.94;42.68
80986;BME280;70451;51.226;6.412;2023-06-24T10:10:25;101767.75;;;24.84;41.57
80986;BME280;70451;51.226;6.412;2023-06-24T10:12:41;101773.03;;;25.13;42.75
80986;BME280;70451;51.226;6.412;2023-06-24T10:14:59;101764.78;;;25.34;42.59
80986;BME280;70451;51.226;6.412;2023-06-24T10:17:15;101768.59;;;25.31;41.27
80986;BME280;70451;51.226;6.412;2023-06-24T10:19:31;101764.81;;;25.24;39.53
80986;BME280;70451;51.226;6.412;2023-06-24T10:21:53;101760.56;;;24.94;40.05
80986;BME280;70451;51.226;6.412;2023-06-24T10:24:10;101761.38;;;25.14;43.84
80986;BME280;70451;51.226;6.412;2023-06-24T10:33:58;101750.22;;;25.56;42.75
80986;BME280;70451;51.226;6.412;2023-06-24T10:36:31;101744.91;;;25.73;38.74
80986;BME280;70451;51.226;6.412;2023-06-24T10:38:55;101740.50;;;25.64;36.47
80986;BME280;70451;51.226;6.412;2023-06-24T10:41:16;101741.63;;;25.80;38.70
80986;BME280;70451;51.226;6.412;2023-06-24T10:43:38;101745.72;;;25.56;39.88
80986;BME280;70451;51.226;6.412;2023-06-24T10:45:56;101738.72;;;25.73;38.91
80986;BME280;70451;51.226;6.412;2023-06-24T10:48:11;101735.91;;;25.74;36.16
80986;BME280;70451;51.226;6.412;2023-06-24T10:50:26;101732.72;;;25.71;35.84
80986;BME280;70451;51.226;6.412;2023-06-24T10:52:44;101729.19;;;25.70;36.50
80986;BME280;70451;51.226;6.412;2023-06-24T10:54:59;101725.06;;;25.94;39.40
80986;BME280;70451;51.226;6.412;2023-06-24T10:57:15;101718.03;;;25.75;34.85
80986;BME280;70451;51.226;6.412;2023-06-24T10:59:40;101721.41;;;25.77;37.35
80986;BME280;70451;51.226;6.412;2023-06-24T11:01:55;101720.13;;;25.99;41.55
80986;BME280;70451;51.226;6.412;2023-06-24T11:04:10;101716.50;;;26.08;39.18
80986;BME280;70451;51.226;6.412;2023-06-24T11:06:26;101717.53;;;26.07;38.56
80986;BME280;70451;51.226;6.412;2023-06-24T11:08:45;101720.47;;;25.86;38.17
80986;BME280;70451;51.226;6.412;2023-06-24T11:11:00;101714.38;;;25.94;39.20
80986;BME280;70451;51.226;6.412;2023-06-24T11:13:20;101715.97;;;25.69;36.83
80986;BME280;70451;51.226;6.412;2023-06-24T11:15:35;101713.53;;;25.76;37.01
80986;BME280;70451;51.226;6.412;2023-06-24T11:17:51;101712.53;;;25.77;37.45
80986;BME280;70451;51.226;6.412;2023-06-24T11:20:08;101702.22;;;26.17;35.33
80986;BME280;70451;51.226;6.412;2023-06-24T11:22:26;101711.34;;;26.06;36.79
80986;BME280;70451;51.226;6.412;2023-06-24T11:24:41;101714.38;;;25.76;36.36
80986;BME280;70451;51.226;6.412;2023-06-24T11:26:57;101713.56;;;25.93;41.06
80986;BME280;70451;51.226;6.412;2023-06-24T11:29:12;101705.13;;;26.24;36.67
80986;BME280;70451;51.226;6.412;2023-06-24T11:31:28;101702.47;;;26.06;37.77
80986;BME280;70451;51.226;6.412;2023-06-24T11:33:48;101697.19;;;26.14;35.44
80986;BME280;70451;51.226;6.412;2023-06-24T11:36:09;101700.56;;;26.34;32.68
80986;BME280;70451;51.226;6.412;2023-06-24T11:38:24;101701.47;;;25.89;33.73
80986;BME280;70451;51.226;6.412;2023-06-24T11:40:48;101689.41;;;26.03;32.66
80986;BME280;70451;51.226;6.412;2023-06-24T11:43:03;101689.66;;;26.27;33.89
80986;BME280;70451;51.226;6.412;2023-06-24T11:45:21;101690.53;;;25.65;35.05
80986;BME280;70451;51.226;6.412;2023-06-24T11:47:38;101702.31;;;25.90;35.93
80986;BME280;70451;51.226;6.412;2023-06-24T11:49:57;101686.81;;;25.93;36.62
80986;BME280;70451;51.226;6.412;2023-06-24T11:52:13;101695.44;;;26.05;35.42
80986;BME280;70451;51.226;6.412;2023-06-24T11:54:40;101691.22;;;26.02;36.41
80986;BME280;70451;51.226;6.412;2023-06-24T11:56:56;101692.31;;;25.92;35.20
80986;BME280;70451;51.226;6.412;2023-06-24T11:59:22;101675.09;;;25.94;37.78
80986;BME280;70451;51.226;6.412;2023-06-24T12:01:39;101684.81;;;25.95;36.19
80986;BME280;70451;51.226;6.412;2023-06-24T12:03:54;101684.91;;;25.86;38.66
80986;BME280;70451;51.226;6.412;2023-06-24T12:06:09;101683.91;;;25.69;37.78
80986;BME280;70451;51.226;6.412;2023-06-24T12:08:25;101687.31;;;25.79;35.02
80986;BME280;70451;51.226;6.412;2023-06-24T12:10:40;101678.25;;;25.45;35.13
80986;BME280;70451;51.226;6.412;2023-06-24T12:12:56;101684.09;;;25.58;34.04